Arxan, China
Current Conditions -  °F | °C
As of 5:00 AM on Thursday 27 Nov 2014 (Local Time) from ZYHB Reporting Station
Clear Clear  
Wind Chill:   Ceiling: Unl
Heat Index: 18°   Visibility: 6mi
Dew Point:   Wind: 9mph
Humidity: 68%   Direction: 250°WSW
Pressure: 30.21"   Gusts: NA
Location:  47.17°N, 119.95°E
Report Text: ZYHB 262100Z 25004MPS CAVOK M08/M13 Q1023 NOSIG
Loading
Personal Weather Stations






























Interactive Weather Map New forecast layout! Learn more

10-Day Weather Forecast

Advertisements
Track Severe Weather on mobile